Time;durP1;ratioP1;P1;durP2;ratioP2;P2;SDS_P1;SDS_P2;PMS_P1;PMS_P2;Temp;Humidity;BMP_temperature;BMP_pressure;BME280_temperature;BME280_humidity;BME280_pressure;Samples;Min_cycle;Max_cycle;Signal;HPM_P1;HPM_P2
2023/10/09 00:02:14;;;;;;;1.75;1.25;;;;;;;;;;6057158;23;20034;-60
2023/10/09 00:05:11;;;;;;;4.15;1.17;;;;;;;;;;6055668;23;20110;-55
2023/10/09 00:08:03;;;;;;;1.77;1.20;;;;;;;;;;6055476;23;20022;-67
2023/10/09 00:10:55;;;;;;;4.32;1.38;;;;;;;;;;6054174;23;20095;-67
2023/10/09 00:13:49;;;;;;;1.83;1.33;;;;;;;;;;6057094;23;20033;-67
2023/10/09 00:16:40;;;;;;;2.42;1.23;;;;;;;;;;6054855;23;20027;-66
2023/10/09 00:19:33;;;;;;;3.08;1.35;;;;;;;;;;6057138;23;20026;-68
2023/10/09 00:22:28;;;;;;;2.53;1.10;;;;;;;;;;6056084;23;20019;-68
2023/10/09 00:25:29;;;;;;;2.67;1.50;;;;;;;;;;6055150;23;20917;-62
2023/10/09 00:28:21;;;;;;;2.28;1.30;;;;;;;;;;6055284;23;20090;-60
2023/10/09 00:31:07;;;;;;;4.18;1.38;;;;;;;;;;6051042;23;20484;-60
2023/10/09 00:34:07;;;;;;;2.28;1.50;;;;;;;;;;6055584;23;20413;-60
2023/10/09 00:36:50;;;;;;;2.42;1.52;;;;;;;;;;6055198;23;20357;-60
2023/10/09 00:39:44;;;;;;;4.40;1.30;;;;;;;;;;6055233;23;20023;-61
2023/10/09 00:42:36;;;;;;;3.92;1.58;;;;;;;;;;6056687;23;20282;-62
2023/10/09 00:45:28;;;;;;;3.35;1.27;;;;;;;;;;6055313;23;20023;-57
2023/10/09 00:48:14;;;;;;;3.40;1.40;;;;;;;;;;6055164;23;20031;-59
2023/10/09 00:51:15;;;;;;;3.72;1.02;;;;;;;;;;6057680;23;20135;-54
2023/10/09 00:57:07;;;;;;;2.58;1.48;;;;;;;;;;6046696;23;20025;-54
2023/10/09 00:59:59;;;;;;;3.78;1.70;;;;;;;;;;6056698;23;20023;-62
2023/10/09 01:02:44;;;;;;;2.65;1.20;;;;;;;;;;6056250;23;20027;-52
2023/10/09 01:05:29;;;;;;;4.70;1.40;;;;;;;;;;6057692;23;20023;-48
2023/10/09 01:11:19;;;;;;;3.10;1.38;;;;;;;;;;6056810;23;20061;-52
2023/10/09 01:14:12;;;;;;;2.42;1.48;;;;;;;;;;6057400;23;20031;-50
2023/10/09 01:17:11;;;;;;;2.70;1.35;;;;;;;;;;6056752;23;20075;-49
2023/10/09 01:20:05;;;;;;;2.90;1.30;;;;;;;;;;6057061;23;20334;-61
2023/10/09 01:23:01;;;;;;;3.03;1.67;;;;;;;;;;6056645;23;20026;-59
2023/10/09 01:25:49;;;;;;;3.50;1.83;;;;;;;;;;6057634;23;20027;-56
2023/10/09 01:28:43;;;;;;;2.90;1.38;;;;;;;;;;6056564;23;20027;-56
2023/10/09 01:31:37;;;;;;;2.15;1.45;;;;;;;;;;6057539;23;20023;-57
2023/10/09 01:34:41;;;;;;;2.17;1.48;;;;;;;;;;6057886;23;20074;-58
2023/10/09 01:40:51;;;;;;;2.38;1.55;;;;;;;;;;6056557;23;20030;-62
2023/10/09 01:42:47;;;;;;;3.72;1.52;;;;;;;;;;6047063;23;20027;-63
2023/10/09 01:45:42;;;;;;;3.70;1.60;;;;;;;;;;6057814;23;20481;-63
2023/10/09 01:48:32;;;;;;;3.20;1.73;;;;;;;;;;6057862;23;20029;-62
2023/10/09 01:51:23;;;;;;;7.70;1.88;;;;;;;;;;6056714;23;20479;-63
2023/10/09 01:54:16;;;;;;;4.80;1.67;;;;;;;;;;6055867;23;20027;-63
2023/10/09 01:57:11;;;;;;;4.38;1.60;;;;;;;;;;6056950;23;20547;-61
2023/10/09 01:59:55;;;;;;;3.15;1.55;;;;;;;;;;6054514;23;20027;-47
2023/10/09 02:02:50;;;;;;;3.17;1.40;;;;;;;;;;6057530;23;20098;-51
2023/10/09 02:05:36;;;;;;;3.22;1.73;;;;;;;;;;6056023;23;20027;-50
2023/10/09 02:08:37;;;;;;;6.75;1.30;;;;;;;;;;6057335;23;20031;-51
2023/10/09 02:11:41;;;;;;;1.52;1.40;;;;;;;;;;6057414;23;20033;-51
2023/10/09 02:14:24;;;;;;;8.07;1.63;;;;;;;;;;6057784;23;20030;-57
2023/10/09 02:17:17;;;;;;;2.65;1.55;;;;;;;;;;6054928;23;20027;-57
2023/10/09 02:20:19;;;;;;;2.63;1.67;;;;;;;;;;6056996;23;20019;-58
2023/10/09 02:22:59;;;;;;;4.75;1.42;;;;;;;;;;6057986;23;20023;-48
2023/10/09 02:25:47;;;;;;;2.53;1.33;;;;;;;;;;6056497;23;20023;-52
2023/10/09 02:28:40;;;;;;;6.95;1.52;;;;;;;;;;6056536;23;20368;-62
2023/10/09 02:31:35;;;;;;;4.20;1.50;;;;;;;;;;6055090;23;20126;-61
2023/10/09 02:34:25;;;;;;;2.25;1.50;;;;;;;;;;6057126;23;20023;-62
2023/10/09 02:37:12;;;;;;;3.08;1.40;;;;;;;;;;6056353;23;20033;-61
2023/10/09 02:40:08;;;;;;;5.15;1.35;;;;;;;;;;6056077;23;20027;-61
2023/10/09 02:42:50;;;;;;;3.00;1.80;;;;;;;;;;6057870;23;20090;-57
2023/10/09 02:45:50;;;;;;;4.28;1.65;;;;;;;;;;6055780;23;20536;-52
2023/10/09 02:48:34;;;;;;;5.20;1.70;;;;;;;;;;6056040;23;20026;-51
2023/10/09 02:53:57;;;;;;;3.42;1.38;;;;;;;;;;6055717;23;20468;-52
2023/10/09 02:57:08;;;;;;;2.58;1.38;;;;;;;;;;6057403;23;20019;-52
2023/10/09 02:59:54;;;;;;;4.18;1.40;;;;;;;;;;6056356;23;20025;-59
2023/10/09 03:02:50;;;;;;;4.10;1.33;;;;;;;;;;6056845;23;20102;-59
2023/10/09 03:05:43;;;;;;;3.03;1.58;;;;;;;;;;6054828;23;20547;-60
2023/10/09 03:08:42;;;;;;;2.50;1.52;;;;;;;;;;6056864;23;20118;-59
2023/10/09 03:11:32;;;;;;;4.85;1.80;;;;;;;;;;6055458;23;20053;-60
2023/10/09 03:14:26;;;;;;;9.40;1.63;;;;;;;;;;6055808;23;20031;-60
2023/10/09 03:17:11;;;;;;;2.33;1.40;;;;;;;;;;6056408;23;20022;-60
2023/10/09 03:20:17;;;;;;;11.85;2.13;;;;;;;;;;6054437;23;20097;-48
2023/10/09 03:23:01;;;;;;;7.50;2.00;;;;;;;;;;6054181;23;20311;-62
2023/10/09 03:25:58;;;;;;;4.78;2.15;;;;;;;;;;6054181;23;20078;-60
2023/10/09 03:28:48;;;;;;;4.65;1.98;;;;;;;;;;6053793;23;20332;-61
2023/10/09 03:31:43;;;;;;;4.32;2.17;;;;;;;;;;6052421;23;20023;-61
2023/10/09 03:34:30;;;;;;;4.65;2.33;;;;;;;;;;6053082;23;20018;-60
2023/10/09 03:37:34;;;;;;;3.63;2.17;;;;;;;;;;6053360;23;20488;-57
2023/10/09 03:40:17;;;;;;;3.75;2.20;;;;;;;;;;6053242;23;20110;-62
2023/10/09 03:43:05;;;;;;;2.92;2.00;;;;;;;;;;6055346;23;20074;-61
2023/10/09 03:45:52;;;;;;;6.68;2.05;;;;;;;;;;6055285;23;20027;-62
2023/10/09 03:48:46;;;;;;;8.38;2.33;;;;;;;;;;6056740;23;20027;-62
2023/10/09 03:51:33;;;;;;;2.83;2.05;;;;;;;;;;6055203;23;20023;-61
2023/10/09 03:54:29;;;;;;;7.18;2.45;;;;;;;;;;6054541;23;20023;-61
2023/10/09 03:57:18;;;;;;;2.63;1.92;;;;;;;;;;6055569;23;20019;-62
2023/10/09 04:00:13;;;;;;;4.80;2.40;;;;;;;;;;6056086;23;20082;-49
2023/10/09 04:02:57;;;;;;;4.32;2.20;;;;;;;;;;6054491;23;20114;-49
2023/10/09 04:06:04;;;;;;;5.75;2.17;;;;;;;;;;6055932;23;20058;-49
2023/10/09 04:14:57;;;;;;;3.63;2.15;;;;;;;;;;6057641;23;20448;-56
2023/10/09 04:17:51;;;;;;;5.25;2.40;;;;;;;;;;6057305;23;20023;-61
2023/10/09 04:23:36;;;;;;;5.78;2.17;;;;;;;;;;6055062;23;20082;-62
2023/10/09 04:26:24;;;;;;;3.95;2.33;;;;;;;;;;6054101;23;20082;-61
2023/10/09 04:29:37;;;;;;;5.82;2.25;;;;;;;;;;6056264;23;20078;-62
2023/10/09 04:32:25;;;;;;;6.47;2.00;;;;;;;;;;6054923;23;20023;-62
2023/10/09 04:35:23;;;;;;;4.05;2.22;;;;;;;;;;6056721;23;20051;-48
2023/10/09 04:38:07;;;;;;;10.10;2.20;;;;;;;;;;6054644;23;20094;-49
2023/10/09 04:41:05;;;;;;;6.25;2.13;;;;;;;;;;6055973;23;20027;-49
2023/10/09 04:44:18;;;;;;;5.60;2.10;;;;;;;;;;6052191;23;20030;-47
2023/10/09 05:00:35;;;;;;;6.28;2.10;;;;;;;;;;6057656;23;20031;-66
2023/10/09 05:08:28;;;;;;;4.60;2.10;;;;;;;;;;6057597;23;19928;-64
2023/10/09 05:11:34;;;;;;;4.28;1.90;;;;;;;;;;6056286;23;20023;-50
2023/10/09 05:14:12;;;;;;;3.13;1.90;;;;;;;;;;6055032;23;20027;-53
2023/10/09 05:17:04;;;;;;;2.67;1.85;;;;;;;;;;6055532;23;20038;-49
2023/10/09 05:20:55;;;;;;;4.05;2.22;;;;;;;;;;6055420;23;20093;-47
2023/10/09 05:22:56;;;;;;;3.22;1.77;;;;;;;;;;6052981;23;20023;-51
2023/10/09 05:25:58;;;;;;;3.83;2.40;;;;;;;;;;6054567;23;20484;-49
2023/10/09 05:28:52;;;;;;;7.30;2.17;;;;;;;;;;6055510;23;20050;-57
2023/10/09 05:31:56;;;;;;;4.18;1.77;;;;;;;;;;6055671;23;20027;-54
2023/10/09 05:34:33;;;;;;;3.00;1.90;;;;;;;;;;6057063;23;20019;-56
2023/10/09 05:37:34;;;;;;;4.47;2.00;;;;;;;;;;6058561;23;20025;-52
2023/10/09 05:40:30;;;;;;;8.30;2.25;;;;;;;;;;6057577;23;20030;-57
2023/10/09 05:44:55;;;;;;;4.10;1.90;;;;;;;;;;6058005;23;20086;-57
2023/10/09 05:46:15;;;;;;;4.47;2.10;;;;;;;;;;6058439;23;20030;-57
2023/10/09 05:49:09;;;;;;;7.32;2.70;;;;;;;;;;6058789;23;20023;-51
2023/10/09 05:52:27;;;;;;;8.00;2.42;;;;;;;;;;6056682;23;20030;-49
2023/10/09 05:55:27;;;;;;;3.70;2.42;;;;;;;;;;6058332;23;20027;-48
2023/10/09 06:24:22;;;;;;;8.07;2.30;;;;;;;;;;6057989;23;20503;-47
2023/10/09 06:27:26;;;;;;;6.22;2.20;;;;;;;;;;6057556;23;20086;-60
2023/10/09 06:32:50;;;;;;;4.75;1.90;;;;;;;;;;6057210;23;20073;-61
2023/10/09 06:35:53;;;;;;;2.97;1.98;;;;;;;;;;6057666;23;20032;-60
2023/10/09 06:38:52;;;;;;;3.88;1.92;;;;;;;;;;6056522;23;20026;-60
2023/10/09 06:41:34;;;;;;;6.18;2.88;;;;;;;;;;6055824;23;20037;-60
2023/10/09 06:45:14;;;;;;;6.88;2.38;;;;;;;;;;6058590;23;20073;-50
2023/10/09 06:47:25;;;;;;;4.82;2.50;;;;;;;;;;6051000;23;20060;-49
2023/10/09 06:55:49;;;;;;;3.75;1.88;;;;;;;;;;6058471;23;20098;-46
2023/10/09 06:58:42;;;;;;;4.38;1.58;;;;;;;;;;6057661;23;20483;-58
2023/10/09 07:04:19;;;;;;;2.90;1.90;;;;;;;;;;6056302;23;20477;-68
2023/10/09 07:06:56;;;;;;;3.97;2.13;;;;;;;;;;6055126;23;20251;-68
2023/10/09 07:09:43;;;;;;;3.90;2.20;;;;;;;;;;6058091;23;20050;-68
2023/10/09 07:12:32;;;;;;;3.55;2.40;;;;;;;;;;6056298;23;20027;-68
2023/10/09 07:16:23;;;;;;;4.82;2.10;;;;;;;;;;6056813;23;20031;-68
2023/10/09 07:18:45;;;;;;;3.45;2.00;;;;;;;;;;6055778;23;20019;-68
2023/10/09 07:21:27;;;;;;;5.97;2.00;;;;;;;;;;6056916;23;20279;-59
2023/10/09 07:24:17;;;;;;;3.97;2.67;;;;;;;;;;6057333;23;20492;-57
2023/10/09 07:27:15;;;;;;;7.35;1.95;;;;;;;;;;6056284;23;20027;-58
2023/10/09 07:30:35;;;;;;;3.50;2.15;;;;;;;;;;6056355;23;20023;-58
2023/10/09 07:32:54;;;;;;;3.85;1.95;;;;;;;;;;6056004;23;20102;-57
2023/10/09 07:36:34;;;;;;;6.25;2.38;;;;;;;;;;6056631;23;20026;-61
2023/10/09 07:38:37;;;;;;;5.45;2.60;;;;;;;;;;6048460;23;20549;-61
2023/10/09 07:44:18;;;;;;;4.65;2.38;;;;;;;;;;6057612;23;20026;-54
2023/10/09 07:46:55;;;;;;;4.60;2.60;;;;;;;;;;6056460;23;20035;-57
2023/10/09 07:49:42;;;;;;;3.83;2.40;;;;;;;;;;6056997;23;20023;-60
2023/10/09 07:52:43;;;;;;;3.80;2.25;;;;;;;;;;6057386;23;20031;-58
2023/10/09 07:55:29;;;;;;;7.00;2.30;;;;;;;;;;6055345;23;20082;-61
2023/10/09 07:58:25;;;;;;;5.70;1.92;;;;;;;;;;6055522;23;20034;-58
2023/10/09 08:01:15;;;;;;;5.95;2.20;;;;;;;;;;6056528;23;20018;-56
2023/10/09 08:04:10;;;;;;;5.30;1.98;;;;;;;;;;6055046;23;20572;-57
2023/10/09 08:06:53;;;;;;;3.78;1.80;;;;;;;;;;6056170;23;20034;-59
2023/10/09 08:18:03;;;;;;;9.48;1.80;;;;;;;;;;6055773;23;20102;-60
2023/10/09 08:23:48;;;;;;;3.88;2.00;;;;;;;;;;6056637;23;20369;-61
2023/10/09 08:26:47;;;;;;;;;;;;;;;;;;6055705;23;20029;-61
2023/10/09 08:29:34;;;;;;;6.57;2.53;;;;;;;;;;6056321;23;20398;-61
2023/10/09 08:32:38;;;;;;;6.22;1.55;;;;;;;;;;6054114;23;20046;-48
2023/10/09 08:35:46;;;;;;;4.07;1.50;;;;;;;;;;6058655;23;20355;-61
2023/10/09 08:38:26;;;;;;;3.05;1.60;;;;;;;;;;6055306;23;20106;-61
2023/10/09 08:41:29;;;;;;;4.05;1.58;;;;;;;;;;6054587;23;20079;-61
2023/10/09 08:44:15;;;;;;;5.72;1.48;;;;;;;;;;6056883;23;20918;-61
2023/10/09 08:47:07;;;;;;;3.10;1.05;;;;;;;;;;6056314;23;20026;-61
2023/10/09 08:50:01;;;;;;;4.10;1.60;;;;;;;;;;6057175;23;20023;-61
2023/10/09 08:52:51;;;;;;;5.78;1.63;;;;;;;;;;6056218;23;20090;-60
2023/10/09 08:55:46;;;;;;;4.00;1.50;;;;;;;;;;6056046;23;20508;-60
2023/10/09 08:58:36;;;;;;;3.53;1.38;;;;;;;;;;6057619;23;20062;-60
2023/10/09 09:01:27;;;;;;;2.47;1.42;;;;;;;;;;6055416;23;20105;-60
2023/10/09 09:04:39;;;;;;;4.85;1.10;;;;;;;;;;6055023;23;20402;-60
2023/10/09 09:07:42;;;;;;;3.17;1.17;;;;;;;;;;6054468;23;20691;-68
2023/10/09 09:10:38;;;;;;;2.50;1.20;;;;;;;;;;6057178;23;20055;-51
2023/10/09 09:13:31;;;;;;;4.57;1.23;;;;;;;;;;6057980;23;20461;-49
2023/10/09 09:16:21;;;;;;;2.22;1.20;;;;;;;;;;6055880;23;20033;-49
2023/10/09 09:19:18;;;;;;;5.55;2.03;;;;;;;;;;6057371;23;20050;-53
2023/10/09 09:22:12;;;;;;;8.23;2.88;;;;;;;;;;6056990;23;20031;-50
2023/10/09 09:25:09;;;;;;;2.03;1.15;;;;;;;;;;6059207;23;20019;-47
2023/10/09 09:28:09;;;;;;;3.40;1.60;;;;;;;;;;6057679;23;20405;-52
2023/10/09 09:30:55;;;;;;;5.53;1.40;;;;;;;;;;6058439;23;20034;-51
2023/10/09 09:33:58;;;;;;;1.10;0.98;;;;;;;;;;6057354;23;20058;-50
2023/10/09 09:36:53;;;;;;;4.40;1.85;;;;;;;;;;6057135;23;20035;-51
2023/10/09 09:39:44;;;;;;;2.35;1.33;;;;;;;;;;6058291;23;20030;-52
2023/10/09 09:42:34;;;;;;;2.38;1.33;;;;;;;;;;6057666;23;20023;-50
2023/10/09 09:45:26;;;;;;;6.22;1.58;;;;;;;;;;6055903;23;20046;-60
2023/10/09 09:48:15;;;;;;;4.50;1.55;;;;;;;;;;6056536;23;20027;-68
2023/10/09 09:51:08;;;;;;;2.42;1.10;;;;;;;;;;6058237;23;20039;-67
2023/10/09 09:54:02;;;;;;;6.10;1.52;;;;;;;;;;6057908;23;20030;-67
2023/10/09 09:56:57;;;;;;;3.67;1.77;;;;;;;;;;6058778;23;20075;-65
2023/10/09 09:59:50;;;;;;;2.70;1.15;;;;;;;;;;6057996;23;20030;-67
2023/10/09 17:07:14;;;;;;;2.63;1.08;;;;;;;;;;6075116;23;20786;-61
2023/10/09 17:09:56;;;;;;;1.67;1.10;;;;;;;;;;6053194;23;20078;-51
2023/10/09 17:12:51;;;;;;;3.17;1.55;;;;;;;;;;6053092;23;20027;-50
2023/10/09 17:15:35;;;;;;;4.93;1.48;;;;;;;;;;6050522;23;20751;-53
2023/10/09 17:18:29;;;;;;;3.75;1.83;;;;;;;;;;6050048;23;20029;-52
2023/10/09 17:21:19;;;;;;;3.38;1.63;;;;;;;;;;6045195;23;20027;-52
2023/10/09 17:24:10;;;;;;;3.42;1.50;;;;;;;;;;6047279;23;20033;-61
2023/10/09 17:26:57;;;;;;;1.45;1.05;;;;;;;;;;6052249;23;20446;-57
2023/10/09 17:29:51;;;;;;;3.20;1.23;;;;;;;;;;6050154;23;20237;-57
2023/10/09 17:32:38;;;;;;;2.47;1.50;;;;;;;;;;6053360;23;20026;-59
2023/10/09 17:35:34;;;;;;;2.75;1.38;;;;;;;;;;6055048;23;20433;-59
2023/10/09 17:38:19;;;;;;;13.20;4.15;;;;;;;;;;6055501;23;20807;-57
2023/10/09 17:41:13;;;;;;;5.95;2.25;;;;;;;;;;6055157;23;20031;-60
2023/10/09 17:44:00;;;;;;;4.50;1.80;;;;;;;;;;6054360;23;20801;-50
2023/10/09 17:46:54;;;;;;;5.22;1.90;;;;;;;;;;6054967;23;20121;-64
2023/10/09 17:49:41;;;;;;;4.10;1.65;;;;;;;;;;6053625;23;20531;-63
2023/10/09 17:52:35;;;;;;;5.15;1.55;;;;;;;;;;6056309;23;20117;-63
2023/10/09 17:55:23;;;;;;;3.80;1.52;;;;;;;;;;6054477;23;20360;-63
2023/10/09 17:58:16;;;;;;;6.65;2.55;;;;;;;;;;6053825;23;20175;-63
2023/10/09 18:01:08;;;;;;;3.20;1.23;;;;;;;;;;6054318;23;20038;-58
2023/10/09 18:04:02;;;;;;;7.47;2.55;;;;;;;;;;6052870;23;20677;-65
2023/10/09 18:06:48;;;;;;;6.55;2.20;;;;;;;;;;6052717;23;20026;-64
2023/10/09 18:09:56;;;;;;;3.38;1.60;;;;;;;;;;6053214;23;20397;-64
2023/10/09 18:12:41;;;;;;;4.53;1.63;;;;;;;;;;6054130;23;20126;-64
2023/10/09 18:15:35;;;;;;;3.78;1.83;;;;;;;;;;6054811;23;20109;-64
2023/10/09 18:18:22;;;;;;;4.18;1.60;;;;;;;;;;6053950;23;20453;-63
2023/10/09 18:21:19;;;;;;;9.95;2.30;;;;;;;;;;6053993;23;20349;-54
2023/10/09 18:24:05;;;;;;;4.65;1.90;;;;;;;;;;6053708;23;20026;-62
2023/10/09 18:26:57;;;;;;;4.05;2.28;;;;;;;;;;6053635;23;20034;-61
2023/10/09 18:29:48;;;;;;;3.75;2.00;;;;;;;;;;6055348;23;20027;-61
2023/10/09 18:32:39;;;;;;;5.32;2.20;;;;;;;;;;6050130;23;20033;-61
2023/10/09 18:35:30;;;;;;;4.55;1.75;;;;;;;;;;6050140;23;20026;-62
2023/10/09 18:38:23;;;;;;;5.32;1.90;;;;;;;;;;6054035;23;20023;-45
2023/10/09 18:41:13;;;;;;;4.07;1.70;;;;;;;;;;6054183;23;20358;-64
2023/10/09 18:44:09;;;;;;;4.65;2.00;;;;;;;;;;6052881;23;20372;-63
2023/10/09 18:46:56;;;;;;;3.85;1.98;;;;;;;;;;6052179;23;20095;-64
2023/10/09 18:49:50;;;;;;;2.28;1.80;;;;;;;;;;6053611;23;20031;-64
2023/10/09 18:52:35;;;;;;;3.90;2.00;;;;;;;;;;6054039;23;20388;-64
2023/10/09 18:55:29;;;;;;;5.38;2.45;;;;;;;;;;6053816;23;20113;-64
2023/10/09 18:58:23;;;;;;;3.33;2.20;;;;;;;;;;6054161;23;20524;-49
2023/10/09 19:01:13;;;;;;;2.80;1.90;;;;;;;;;;6053590;23;20018;-60
2023/10/09 19:04:10;;;;;;;3.58;1.75;;;;;;;;;;6054025;23;20078;-59
2023/10/09 19:06:57;;;;;;;4.22;1.85;;;;;;;;;;6055663;23;20061;-60
2023/10/09 19:09:57;;;;;;;5.10;1.92;;;;;;;;;;6054345;23;20094;-59
2023/10/09 19:12:52;;;;;;;2.95;1.52;;;;;;;;;;6053822;23;20034;-59
2023/10/09 19:15:50;;;;;;;5.85;1.80;;;;;;;;;;6054362;23;20078;-47
2023/10/09 19:18:37;;;;;;;4.25;2.30;;;;;;;;;;6053406;23;20055;-61
2023/10/09 19:21:30;;;;;;;2.92;1.75;;;;;;;;;;6053191;23;20075;-62
2023/10/09 19:24:19;;;;;;;4.70;1.98;;;;;;;;;;6051714;23;20068;-61
2023/10/09 19:27:13;;;;;;;5.60;2.10;;;;;;;;;;6052478;23;20491;-62
2023/10/09 19:30:01;;;;;;;3.38;1.90;;;;;;;;;;6053306;23;20312;-64
2023/10/09 19:32:53;;;;;;;8.32;2.20;;;;;;;;;;6053650;23;20699;-47
2023/10/09 19:35:40;;;;;;;3.15;1.73;;;;;;;;;;6054168;23;20115;-64
2023/10/09 19:38:34;;;;;;;2.75;1.58;;;;;;;;;;6053500;23;20026;-64
2023/10/09 19:41:22;;;;;;;2.40;1.60;;;;;;;;;;6053932;23;20808;-65
2023/10/09 19:44:17;;;;;;;4.80;1.88;;;;;;;;;;6053833;23;20090;-63
2023/10/09 19:47:05;;;;;;;3.63;1.75;;;;;;;;;;6053982;23;20133;-65
2023/10/09 19:49:57;;;;;;;2.00;1.52;;;;;;;;;;6054583;23;20113;-63
2023/10/09 19:52:45;;;;;;;4.63;1.88;;;;;;;;;;6051421;23;20023;-51
2023/10/09 19:55:43;;;;;;;5.15;2.10;;;;;;;;;;6054486;23;20023;-63
2023/10/09 19:58:29;;;;;;;2.85;1.60;;;;;;;;;;6051720;23;20022;-63
2023/10/09 20:01:24;;;;;;;4.30;1.80;;;;;;;;;;6053019;23;20042;-62
2023/10/09 20:04:10;;;;;;;6.65;2.00;;;;;;;;;;6053714;23;20767;-62
2023/10/09 20:07:03;;;;;;;8.30;2.60;;;;;;;;;;6052624;23;20110;-63
2023/10/09 20:09:58;;;;;;;4.40;2.20;;;;;;;;;;6082224;23;20412;-49
2023/10/09 20:12:51;;;;;;;4.25;2.33;;;;;;;;;;6082708;23;20428;-59
2023/10/09 20:15:44;;;;;;;2.83;1.83;;;;;;;;;;6081202;23;20433;-59
2023/10/09 20:18:36;;;;;;;4.57;1.90;;;;;;;;;;6081467;23;20023;-57
2023/10/09 20:21:24;;;;;;;5.15;1.98;;;;;;;;;;6082882;23;20082;-57
2023/10/09 20:24:18;;;;;;;5.28;2.10;;;;;;;;;;6077202;23;20325;-55
2023/10/09 20:27:05;;;;;;;4.90;1.77;;;;;;;;;;6083006;23;20027;-58
2023/10/09 20:29:59;;;;;;;7.80;2.03;;;;;;;;;;6079695;23;20227;-61
2023/10/09 20:32:46;;;;;;;5.03;2.00;;;;;;;;;;6081782;23;20033;-55
2023/10/09 20:35:45;;;;;;;2.78;1.77;;;;;;;;;;6080935;23;20050;-58
2023/10/09 20:38:27;;;;;;;4.25;2.10;;;;;;;;;;6079521;23;20610;-57
2023/10/09 20:41:22;;;;;;;3.95;2.20;;;;;;;;;;6081764;23;20034;-57
2023/10/09 20:44:08;;;;;;;7.13;2.13;;;;;;;;;;6082769;23;20052;-54
2023/10/09 20:47:02;;;;;;;6.28;2.20;;;;;;;;;;6080886;23;20033;-61
2023/10/09 20:49:49;;;;;;;3.92;2.00;;;;;;;;;;6082077;23;20022;-57
2023/10/09 20:52:47;;;;;;;6.97;1.98;;;;;;;;;;6081902;23;20194;-58
2023/10/09 20:55:34;;;;;;;2.75;1.85;;;;;;;;;;6080345;23;20026;-58
2023/10/09 20:58:28;;;;;;;6.38;2.13;;;;;;;;;;6081718;23;20019;-60
2023/10/09 21:01:15;;;;;;;5.82;2.72;;;;;;;;;;6081600;23;20023;-59
2023/10/09 21:04:09;;;;;;;3.83;2.50;;;;;;;;;;6082221;23;20065;-59
2023/10/09 21:06:56;;;;;;;11.07;2.33;;;;;;;;;;6084150;23;20031;-62
2023/10/09 21:09:57;;;;;;;5.82;2.40;;;;;;;;;;6082591;23;20046;-52
2023/10/09 21:12:48;;;;;;;6.00;2.30;;;;;;;;;;6083796;23;20030;-51
2023/10/09 21:15:40;;;;;;;4.43;2.40;;;;;;;;;;6082487;23;20420;-48
2023/10/09 21:18:28;;;;;;;3.40;1.85;;;;;;;;;;6083483;23;20030;-50
2023/10/09 21:21:22;;;;;;;5.30;2.17;;;;;;;;;;6083947;23;20114;-53
2023/10/09 21:24:12;;;;;;;2.65;1.80;;;;;;;;;;6083792;23;20113;-51
2023/10/09 21:27:02;;;;;;;4.68;2.28;;;;;;;;;;6084588;23;20097;-52
2023/10/09 21:29:49;;;;;;;5.72;2.22;;;;;;;;;;6084989;23;20031;-51
2023/10/09 21:32:46;;;;;;;3.95;1.92;;;;;;;;;;6085163;23;20025;-54
2023/10/09 21:35:37;;;;;;;5.68;2.40;;;;;;;;;;6085341;23;20030;-49
2023/10/09 21:38:27;;;;;;;4.60;2.28;;;;;;;;;;6085854;23;20535;-53
2023/10/09 21:41:21;;;;;;;4.57;2.03;;;;;;;;;;6087806;23;20026;-60
2023/10/09 21:44:15;;;;;;;4.55;2.10;;;;;;;;;;6087460;23;20105;-61
2023/10/09 21:47:06;;;;;;;5.32;1.83;;;;;;;;;;6088671;23;20034;-66
2023/10/09 21:49:56;;;;;;;6.60;2.38;;;;;;;;;;6085413;23;20515;-65
2023/10/09 21:52:44;;;;;;;3.45;2.28;;;;;;;;;;6083225;23;20018;-66
2023/10/09 21:55:39;;;;;;;4.45;2.30;;;;;;;;;;6085642;23;20060;-65
2023/10/09 21:58:32;;;;;;;6.18;2.05;;;;;;;;;;6086765;23;20026;-66
2023/10/09 22:01:27;;;;;;;3.08;2.20;;;;;;;;;;6087264;23;20033;-54
2023/10/09 22:04:15;;;;;;;6.55;2.47;;;;;;;;;;6086186;23;20058;-49
2023/10/09 22:07:10;;;;;;;8.40;2.05;;;;;;;;;;6086206;23;20023;-49
2023/10/09 22:10:15;;;;;;;7.20;2.38;;;;;;;;;;6086110;23;20342;-51
2023/10/09 22:12:58;;;;;;;6.22;2.35;;;;;;;;;;6085273;23;20027;-52
2023/10/09 22:15:52;;;;;;;5.40;2.40;;;;;;;;;;6084811;23;20480;-51
2023/10/09 22:18:39;;;;;;;7.25;2.25;;;;;;;;;;6086147;23;20143;-56
2023/10/09 22:21:41;;;;;;;4.28;2.20;;;;;;;;;;6084633;23;20082;-57
2023/10/09 22:24:30;;;;;;;3.00;2.10;;;;;;;;;;6084637;23;20030;-58
2023/10/09 22:27:24;;;;;;;3.00;2.10;;;;;;;;;;6085874;23;20019;-58
2023/10/09 22:30:12;;;;;;;4.70;2.38;;;;;;;;;;6085999;23;20094;-52
2023/10/09 22:33:11;;;;;;;4.70;2.25;;;;;;;;;;6087147;23;20027;-56
2023/10/09 22:35:53;;;;;;;8.52;2.60;;;;;;;;;;6085970;23;20034;-59
2023/10/09 22:38:54;;;;;;;4.43;2.17;;;;;;;;;;6081637;23;20022;-63
2023/10/09 22:41:36;;;;;;;4.63;2.22;;;;;;;;;;6086729;23;20139;-55
2023/10/09 22:44:33;;;;;;;5.07;1.98;;;;;;;;;;6084208;23;20023;-55
2023/10/09 22:47:22;;;;;;;7.25;2.58;;;;;;;;;;6087097;23;20448;-58
2023/10/09 22:50:17;;;;;;;7.60;2.20;;;;;;;;;;6086561;23;20022;-58
2023/10/09 22:53:21;;;;;;;4.28;2.15;;;;;;;;;;6085277;23;20054;-56
2023/10/09 22:56:12;;;;;;;5.25;2.40;;;;;;;;;;6084455;23;20111;-54
2023/10/09 22:58:56;;;;;;;2.70;1.77;;;;;;;;;;6084965;23;20022;-61
2023/10/09 23:01:56;;;;;;;3.20;2.10;;;;;;;;;;6086545;23;20026;-61
2023/10/09 23:04:49;;;;;;;7.85;2.10;;;;;;;;;;6084783;23;20022;-61
2023/10/09 23:07:41;;;;;;;4.10;2.22;;;;;;;;;;6085277;23;20056;-63
2023/10/09 23:10:49;;;;;;;7.72;2.95;;;;;;;;;;6084735;23;20689;-61
2023/10/09 23:13:34;;;;;;;7.43;2.80;;;;;;;;;;6084651;23;20026;-55
2023/10/09 23:16:25;;;;;;;4.45;2.72;;;;;;;;;;6085594;23;20030;-59
2023/10/09 23:24:49;;;;;;;6.35;2.85;;;;;;;;;;6078104;23;20053;-59
2023/10/09 23:33:20;;;;;;;4.18;2.67;;;;;;;;;;6086343;23;20475;-56
2023/10/09 23:36:06;;;;;;;5.35;2.55;;;;;;;;;;6084498;23;20026;-50
2023/10/09 23:39:09;;;;;;;4.47;2.70;;;;;;;;;;6085055;23;20022;-49
2023/10/09 23:42:15;;;;;;;3.78;2.15;;;;;;;;;;6085479;23;20571;-48
2023/10/09 23:44:50;;;;;;;4.97;2.70;;;;;;;;;;6084705;23;20077;-52
2023/10/09 23:47:47;;;;;;;7.32;2.65;;;;;;;;;;6085186;23;20026;-51
2023/10/09 23:50:32;;;;;;;4.18;2.45;;;;;;;;;;6083890;23;20033;-58
2023/10/09 23:53:29;;;;;;;5.85;2.45;;;;;;;;;;6086393;23;20031;-61
2023/10/09 23:56:35;;;;;;;6.93;2.65;;;;;;;;;;6083881;23;20037;-63
2023/10/09 23:59:12;;;;;;;13.85;3.10;;;;;;;;;;6084684;23;20077;-61
